Time;durP1;ratioP1;P1;durP2;ratioP2;P2;SDS_P1;SDS_P2;PMS_P1;PMS_P2;Temp;Humidity;BMP_temperature;BMP_pressure;BME280_temperature;BME280_humidity;BME280_pressure;Samples;Min_cycle;Max_cycle;Signal;HPM_P1;HPM_P2
2023/09/29 00:00:08;;;;;;;3.53;2.13;;;20.20;99.90;;;;;;4171034;28;20087;-70
2023/09/29 00:02:09;;;;;;;3.65;2.38;;;20.20;99.90;;;;;;4184089;28;20058;-70
2023/09/29 00:04:10;;;;;;;3.25;1.70;;;20.20;99.90;;;;;;4180309;28;20123;-69
2023/09/29 00:06:11;;;;;;;2.70;1.90;;;20.20;99.90;;;;;;4181392;28;20033;-70
2023/09/29 00:08:16;;;;;;;5.90;2.35;;;20.20;99.90;;;;;;4180690;28;20044;-70
2023/09/29 00:10:20;;;;;;;4.53;2.28;;;20.20;99.90;;;;;;4182050;28;20041;-70
2023/09/29 00:12:21;;;;;;;4.72;2.40;;;20.20;99.90;;;;;;4171307;28;20076;-70
2023/09/29 00:14:22;;;;;;;4.93;2.22;;;20.20;99.90;;;;;;4170224;28;20505;-70
2023/09/29 00:16:22;;;;;;;3.22;2.22;;;20.20;99.90;;;;;;4183022;28;20040;-70
2023/09/29 00:18:23;;;;;;;4.72;2.10;;;20.20;99.90;;;;;;4181418;28;20025;-70
2023/09/29 00:20:24;;;;;;;3.35;2.10;;;20.20;99.90;;;;;;4181246;28;20033;-70
2023/09/29 00:22:25;;;;;;;4.13;2.20;;;20.20;99.90;;;;;;4188913;28;20127;-70
2023/09/29 00:24:26;;;;;;;4.13;2.15;;;20.20;99.90;;;;;;4173702;28;20541;-70
2023/09/29 00:26:26;;;;;;;5.10;2.58;;;20.20;99.90;;;;;;4183797;28;20030;-70
2023/09/29 00:28:27;;;;;;;3.47;1.88;;;20.20;99.90;;;;;;4184919;28;20036;-70
2023/09/29 00:30:28;;;;;;;3.45;2.22;;;20.20;99.90;;;;;;4166353;28;20033;-70
2023/09/29 00:32:28;;;;;;;4.18;2.30;;;20.30;99.90;;;;;;4174504;28;20025;-70
2023/09/29 00:34:29;;;;;;;5.53;2.53;;;20.20;99.90;;;;;;4168202;28;20074;-74
2023/09/29 00:36:30;;;;;;;3.33;2.00;;;20.20;99.90;;;;;;4169295;28;20437;-73
2023/09/29 00:38:30;;;;;;;3.47;2.10;;;20.30;99.90;;;;;;4176026;28;20079;-74
2023/09/29 00:40:32;;;;;;;3.90;2.20;;;20.20;99.90;;;;;;4185047;28;20044;-74
2023/09/29 00:42:32;;;;;;;3.53;2.10;;;20.20;99.90;;;;;;4187570;28;20113;-74
2023/09/29 00:44:33;;;;;;;4.70;2.25;;;20.20;99.90;;;;;;4184799;28;20882;-73
2023/09/29 00:46:34;;;;;;;6.60;2.53;;;20.20;99.90;;;;;;4183203;28;20054;-73
2023/09/29 00:48:38;;;;;;;4.13;2.30;;;20.20;99.90;;;;;;4185804;28;20473;-74
2023/09/29 00:50:39;;;;;;;5.63;2.58;;;20.30;99.90;;;;;;4187372;28;20021;-74
2023/09/29 00:52:42;;;;;;;4.45;2.40;;;20.20;99.90;;;;;;4181182;28;20099;-71
2023/09/29 00:54:45;;;;;;;3.65;2.15;;;20.30;99.90;;;;;;4180383;28;20476;-71
2023/09/29 00:56:46;;;;;;;5.25;2.60;;;20.30;99.90;;;;;;4183244;28;20044;-74
2023/09/29 00:58:47;;;;;;;4.22;2.15;;;20.30;99.90;;;;;;4182227;28;20029;-73
2023/09/29 01:00:47;;;;;;;3.92;1.98;;;20.30;99.90;;;;;;4180322;28;20459;-74
2023/09/29 01:02:48;;;;;;;4.95;2.40;;;20.30;99.90;;;;;;4179129;28;20044;-74
2023/09/29 01:04:49;;;;;;;4.65;2.60;;;20.30;99.90;;;;;;4180501;28;20025;-74
2023/09/29 01:06:50;;;;;;;5.47;2.90;;;20.30;99.90;;;;;;4173174;28;20486;-74
2023/09/29 01:08:52;;;;;;;6.00;2.78;;;20.30;99.90;;;;;;4171231;28;20033;-74
2023/09/29 01:10:52;;;;;;;4.10;2.25;;;20.20;99.90;;;;;;4161121;28;20116;-74
2023/09/29 01:12:53;;;;;;;6.82;1.95;;;20.30;99.90;;;;;;4183165;28;20389;-73
2023/09/29 01:14:54;;;;;;;3.85;2.28;;;20.30;99.90;;;;;;4186552;28;20043;-74
2023/09/29 01:16:55;;;;;;;3.40;2.20;;;20.20;99.90;;;;;;4175558;28;20032;-70
2023/09/29 01:18:58;;;;;;;2.60;1.77;;;20.20;99.90;;;;;;4178080;28;20525;-74
2023/09/29 01:20:59;;;;;;;1.80;1.30;;;20.20;99.90;;;;;;4182223;28;20426;-72
2023/09/29 01:23:01;;;;;;;2.95;1.98;;;20.30;99.90;;;;;;4169667;28;20087;-74
2023/09/29 01:25:02;;;;;;;3.20;1.58;;;20.30;99.90;;;;;;4179268;28;20040;-74
2023/09/29 01:27:03;;;;;;;2.33;1.80;;;20.30;99.90;;;;;;4173269;28;20029;-74
2023/09/29 01:29:03;;;;;;;2.38;1.75;;;20.30;99.90;;;;;;4185979;28;20037;-73
2023/09/29 01:31:06;;;;;;;4.03;1.73;;;20.30;99.90;;;;;;4187846;28;20036;-74
2023/09/29 01:33:08;;;;;;;2.78;2.03;;;20.30;99.90;;;;;;4183554;28;20166;-73
2023/09/29 01:35:11;;;;;;;2.90;1.95;;;20.30;99.90;;;;;;4179074;28;20025;-74
2023/09/29 01:37:12;;;;;;;3.10;1.65;;;20.30;99.90;;;;;;4173839;28;20120;-74
2023/09/29 01:39:13;;;;;;;3.15;1.73;;;20.30;99.90;;;;;;4172371;28;20044;-73
2023/09/29 01:41:14;;;;;;;4.43;2.10;;;20.30;99.90;;;;;;4167265;28;20559;-74
2023/09/29 01:43:16;;;;;;;3.17;1.80;;;20.30;99.90;;;;;;4157577;28;20151;-73
2023/09/29 01:45:18;;;;;;;4.95;2.40;;;20.30;99.90;;;;;;4184338;28;21402;-70
2023/09/29 01:47:19;;;;;;;5.40;1.95;;;20.30;99.90;;;;;;4184267;28;20547;-70
2023/09/29 01:49:22;;;;;;;4.60;2.60;;;20.30;99.90;;;;;;4179218;28;20044;-70
2023/09/29 01:51:27;;;;;;;3.40;2.22;;;20.30;99.90;;;;;;4184461;28;20029;-70
2023/09/29 01:53:30;;;;;;;3.22;1.80;;;20.40;99.90;;;;;;4183148;28;20090;-68
2023/09/29 01:55:31;;;;;;;2.95;1.80;;;20.30;99.90;;;;;;4176307;28;20057;-70
2023/09/29 01:57:32;;;;;;;3.08;2.10;;;20.30;99.90;;;;;;4185945;28;20048;-67
2023/09/29 01:59:32;;;;;;;4.07;1.90;;;20.30;99.90;;;;;;4184315;28;20033;-67
2023/09/29 02:01:37;;;;;;;2.92;1.80;;;20.30;99.90;;;;;;4182762;28;20062;-67
2023/09/29 02:03:37;;;;;;;3.33;1.80;;;20.30;99.90;;;;;;4184800;28;20033;-67
2023/09/29 02:05:38;;;;;;;2.65;1.73;;;20.30;99.90;;;;;;4187576;28;20547;-67
2023/09/29 02:07:39;;;;;;;2.35;1.77;;;20.20;99.90;;;;;;4180357;28;20036;-67
2023/09/29 02:09:42;;;;;;;5.72;2.08;;;20.20;99.90;;;;;;4184063;28;20036;-67
2023/09/29 02:11:45;;;;;;;5.80;2.70;;;20.20;99.90;;;;;;4179499;28;20036;-68
2023/09/29 02:13:46;;;;;;;2.63;1.85;;;20.20;99.90;;;;;;4184996;28;20417;-67
2023/09/29 02:15:47;;;;;;;3.83;1.73;;;20.20;99.90;;;;;;4175583;28;20037;-66
2023/09/29 02:17:50;;;;;;;2.60;1.90;;;20.10;99.90;;;;;;4181366;28;20036;-67
2023/09/29 02:19:52;;;;;;;2.20;1.60;;;20.10;99.90;;;;;;4178236;28;20569;-67
2023/09/29 02:21:53;;;;;;;3.78;1.77;;;20.00;99.90;;;;;;4185669;28;20025;-67
2023/09/29 02:23:57;;;;;;;3.42;1.85;;;20.00;99.90;;;;;;4181010;28;20017;-67
2023/09/29 02:26:01;;;;;;;2.38;1.65;;;20.00;99.90;;;;;;4174035;28;20087;-67
2023/09/29 02:28:01;;;;;;;2.20;1.80;;;20.00;99.90;;;;;;4149112;28;20045;-67
2023/09/29 02:30:03;;;;;;;3.25;1.90;;;20.00;99.90;;;;;;4188764;28;20036;-68
2023/09/29 02:32:05;;;;;;;4.10;2.00;;;20.00;99.90;;;;;;4173421;28;20021;-67
2023/09/29 02:34:06;;;;;;;3.42;1.75;;;20.00;99.90;;;;;;4177077;28;20087;-67
2023/09/29 02:36:08;;;;;;;3.10;2.00;;;19.90;99.90;;;;;;4165053;28;20078;-67
2023/09/29 02:38:08;;;;;;;2.58;1.75;;;19.90;99.90;;;;;;4164726;28;20026;-67
2023/09/29 02:40:13;;;;;;;3.08;1.70;;;19.90;99.90;;;;;;4166057;28;20099;-67
2023/09/29 02:42:13;;;;;;;3.55;1.77;;;19.90;99.90;;;;;;4178334;28;20036;-67
2023/09/29 02:44:14;;;;;;;3.70;1.35;;;19.90;99.90;;;;;;4184085;28;20032;-67
2023/09/29 02:46:14;;;;;;;1.80;1.50;;;19.90;99.90;;;;;;4180414;28;20508;-68
2023/09/29 02:48:15;;;;;;;3.55;1.77;;;20.00;99.90;;;;;;4175169;28;20076;-66
2023/09/29 02:50:16;;;;;;;1.60;1.40;;;20.00;99.90;;;;;;4164301;28;20044;-65
2023/09/29 02:52:17;;;;;;;2.10;1.70;;;19.90;99.90;;;;;;4185840;28;20586;-65
2023/09/29 02:54:18;;;;;;;2.20;1.50;;;20.00;99.90;;;;;;4183859;28;20044;-66
2023/09/29 02:56:19;;;;;;;3.63;1.50;;;20.00;99.90;;;;;;4184211;28;20119;-72
2023/09/29 02:58:20;;;;;;;2.95;1.75;;;20.00;99.90;;;;;;4172173;28;20033;-68
2023/09/29 03:00:26;;;;;;;2.78;1.90;;;20.00;99.90;;;;;;4169012;28;20548;-68
2023/09/29 03:02:27;;;;;;;2.75;1.50;;;20.00;99.90;;;;;;4177791;28;20041;-68
2023/09/29 03:04:28;;;;;;;2.70;1.80;;;20.00;99.90;;;;;;4182177;28;20033;-68
2023/09/29 03:06:29;;;;;;;4.45;1.52;;;20.00;99.90;;;;;;4176643;28;20036;-72
2023/09/29 03:08:29;;;;;;;5.50;1.98;;;20.00;99.90;;;;;;4164394;28;20047;-71
2023/09/29 03:10:30;;;;;;;2.92;1.65;;;20.00;99.90;;;;;;4171177;28;20048;-72
2023/09/29 03:12:31;;;;;;;1.45;1.23;;;20.00;99.90;;;;;;4180519;28;20134;-72
2023/09/29 03:14:32;;;;;;;3.00;1.70;;;20.00;99.90;;;;;;4177238;28;20439;-70
2023/09/29 03:16:35;;;;;;;6.97;2.10;;;19.90;99.90;;;;;;4184697;28;20537;-72
2023/09/29 03:18:37;;;;;;;2.72;1.75;;;20.00;99.90;;;;;;4178588;28;20033;-72
2023/09/29 03:20:38;;;;;;;3.70;1.90;;;19.90;99.90;;;;;;4202508;28;20043;-72
2023/09/29 03:22:44;;;;;;;2.97;1.55;;;19.90;99.90;;;;;;4163988;28;20456;-72
2023/09/29 03:24:45;;;;;;;2.03;1.42;;;19.90;99.90;;;;;;4183748;28;20028;-72
2023/09/29 03:26:49;;;;;;;2.97;1.58;;;19.80;99.90;;;;;;4165999;28;20678;-71
2023/09/29 03:28:55;;;;;;;3.80;1.80;;;19.80;99.90;;;;;;4183548;28;20482;-72
2023/09/29 03:30:56;;;;;;;4.43;2.20;;;19.80;99.90;;;;;;4179830;28;20049;-72
2023/09/29 03:32:58;;;;;;;3.40;1.92;;;19.80;99.90;;;;;;4180579;28;20557;-70
2023/09/29 03:34:58;;;;;;;3.83;1.85;;;19.70;99.90;;;;;;4179798;28;20435;-72
2023/09/29 03:36:59;;;;;;;3.20;1.80;;;19.70;99.90;;;;;;4186749;28;20040;-73
2023/09/29 03:39:00;;;;;;;2.47;1.85;;;19.70;99.90;;;;;;4183653;28;20024;-72
2023/09/29 03:41:00;;;;;;;4.38;1.90;;;19.70;99.90;;;;;;4185512;28;20456;-71
2023/09/29 03:43:01;;;;;;;4.40;2.10;;;19.70;99.90;;;;;;4167498;28;20068;-71
2023/09/29 03:45:05;;;;;;;4.97;2.33;;;19.70;99.90;;;;;;4177065;28;20037;-70
2023/09/29 03:47:06;;;;;;;5.13;2.42;;;19.70;99.90;;;;;;4183337;28;20116;-73
2023/09/29 03:49:10;;;;;;;3.47;1.95;;;19.70;99.90;;;;;;4183616;28;20037;-73
2023/09/29 03:51:10;;;;;;;2.75;1.70;;;19.70;99.90;;;;;;4181659;28;20040;-73
2023/09/29 03:53:11;;;;;;;4.43;1.80;;;19.70;99.90;;;;;;4166431;28;20569;-73
2023/09/29 03:55:14;;;;;;;4.13;2.00;;;19.70;99.90;;;;;;4200955;28;20528;-72
2023/09/29 03:57:14;;;;;;;2.75;1.90;;;19.70;99.90;;;;;;4186676;28;20094;-68
2023/09/29 03:59:15;;;;;;;3.03;1.85;;;19.60;99.90;;;;;;4173891;28;20061;-71
2023/09/29 04:01:16;;;;;;;3.85;2.05;;;19.60;99.90;;;;;;4180775;28;20051;-72
2023/09/29 04:03:17;;;;;;;2.85;1.92;;;19.70;99.90;;;;;;4184602;28;20489;-68
2023/09/29 04:05:19;;;;;;;3.22;2.00;;;19.70;99.90;;;;;;4184936;28;20109;-68
2023/09/29 04:07:20;;;;;;;2.90;2.15;;;19.70;99.90;;;;;;4170888;28;20396;-68
2023/09/29 04:09:21;;;;;;;2.83;1.73;;;19.60;99.90;;;;;;4167501;28;20059;-68
2023/09/29 04:11:21;;;;;;;3.25;2.25;;;19.70;99.90;;;;;;4168445;28;20036;-68
2023/09/29 04:13:24;;;;;;;3.78;2.08;;;19.70;99.90;;;;;;4169906;28;20029;-68
2023/09/29 04:15:25;;;;;;;4.30;2.33;;;19.70;99.90;;;;;;4180090;28;20045;-68
2023/09/29 04:17:26;;;;;;;3.00;2.00;;;19.70;99.90;;;;;;4180637;28;20032;-68
2023/09/29 04:19:26;;;;;;;3.28;2.20;;;19.70;99.90;;;;;;4180954;28;20047;-68
2023/09/29 04:21:27;;;;;;;4.43;2.22;;;19.60;99.90;;;;;;4185682;28;20028;-68
2023/09/29 04:23:28;;;;;;;4.10;2.03;;;19.70;99.90;;;;;;4187348;28;20429;-68
2023/09/29 04:25:29;;;;;;;4.07;2.10;;;19.60;99.90;;;;;;4200268;28;20047;-73
2023/09/29 04:27:30;;;;;;;5.97;2.40;;;19.60;99.90;;;;;;4181498;28;20465;-71
2023/09/29 04:29:30;;;;;;;4.70;2.45;;;19.60;99.90;;;;;;4185723;28;20033;-71
2023/09/29 04:31:31;;;;;;;4.32;2.20;;;19.60;99.90;;;;;;4179909;28;20418;-70
2023/09/29 04:33:31;;;;;;;2.97;2.03;;;19.60;99.90;;;;;;4181022;28;20040;-73
2023/09/29 04:35:32;;;;;;;3.75;2.00;;;19.60;99.90;;;;;;4179526;28;20090;-66
2023/09/29 04:37:33;;;;;;;4.03;2.10;;;19.60;99.90;;;;;;4185280;28;20044;-66
2023/09/29 04:39:33;;;;;;;3.88;2.15;;;19.70;99.90;;;;;;4186181;28;20529;-66
2023/09/29 04:41:34;;;;;;;3.80;2.17;;;19.70;99.90;;;;;;4182002;28;20041;-67
2023/09/29 04:43:35;;;;;;;3.88;2.30;;;19.70;99.90;;;;;;4185090;28;20429;-69
2023/09/29 04:45:36;;;;;;;3.80;2.00;;;19.70;99.90;;;;;;4169753;28;20037;-66
2023/09/29 04:47:38;;;;;;;3.90;2.28;;;19.70;99.90;;;;;;4168977;28;21093;-65
2023/09/29 04:49:39;;;;;;;2.38;1.90;;;19.70;99.90;;;;;;4177395;28;20036;-65
2023/09/29 04:51:39;;;;;;;5.68;2.33;;;19.70;99.90;;;;;;4181404;28;20036;-65
2023/09/29 04:53:41;;;;;;;4.90;2.40;;;19.70;99.90;;;;;;4185471;28;20111;-65
2023/09/29 04:55:41;;;;;;;3.28;1.98;;;19.70;99.90;;;;;;4177117;28;20620;-66
2023/09/29 04:57:42;;;;;;;4.68;2.60;;;19.70;99.90;;;;;;4191418;28;20508;-65
2023/09/29 04:59:43;;;;;;;3.40;2.05;;;19.70;99.90;;;;;;4186507;28;20524;-65
2023/09/29 05:01:43;;;;;;;4.68;2.50;;;19.70;99.90;;;;;;4181830;28;20689;-65
2023/09/29 05:03:47;;;;;;;3.08;2.20;;;19.60;99.90;;;;;;4176116;28;20036;-65
2023/09/29 05:05:47;;;;;;;3.42;2.10;;;19.70;99.90;;;;;;4179365;28;20029;-66
2023/09/29 05:07:48;;;;;;;4.15;2.40;;;19.70;99.90;;;;;;4170220;28;20075;-67
2023/09/29 05:09:48;;;;;;;3.13;2.30;;;19.70;99.90;;;;;;4171958;28;20044;-69
2023/09/29 05:11:49;;;;;;;3.65;2.22;;;19.70;99.90;;;;;;4176181;28;20466;-65
2023/09/29 05:13:51;;;;;;;5.35;2.45;;;19.70;99.90;;;;;;4171491;28;20467;-66
2023/09/29 05:15:51;;;;;;;4.05;2.70;;;19.70;99.90;;;;;;4184356;28;20028;-73
2023/09/29 05:17:52;;;;;;;4.03;2.58;;;19.70;99.90;;;;;;4181647;28;20035;-72
2023/09/29 05:19:53;;;;;;;4.63;2.90;;;19.60;99.90;;;;;;4180689;28;20035;-73
2023/09/29 05:21:54;;;;;;;4.15;2.55;;;19.60;99.90;;;;;;4184153;28;20323;-73
2023/09/29 05:23:54;;;;;;;3.95;2.80;;;19.60;99.90;;;;;;4180169;28;20029;-73
2023/09/29 05:25:55;;;;;;;5.80;2.83;;;19.60;99.90;;;;;;4180079;28;20025;-74
2023/09/29 05:27:55;;;;;;;5.32;3.13;;;19.60;99.90;;;;;;4177144;28;20055;-73
2023/09/29 05:32:08;;;;;;;3.80;2.45;;;19.60;99.90;;;;;;4149864;27;20393;-67
2023/09/29 05:34:09;;;;;;;3.35;2.58;;;19.60;99.90;;;;;;4138840;28;20037;-67
2023/09/29 05:36:10;;;;;;;8.60;3.83;;;19.60;99.90;;;;;;4148844;28;20045;-65
2023/09/29 05:38:10;;;;;;;7.10;3.40;;;19.60;99.90;;;;;;4158279;28;20116;-65
2023/09/29 05:40:11;;;;;;;7.68;3.17;;;19.60;99.90;;;;;;4145894;28;20030;-65
2023/09/29 05:42:12;;;;;;;6.70;3.33;;;19.60;99.90;;;;;;4159307;28;20425;-65
2023/09/29 05:44:13;;;;;;;9.23;4.03;;;19.60;99.90;;;;;;4132991;28;20031;-65
2023/09/29 05:46:13;;;;;;;6.88;3.00;;;19.60;99.90;;;;;;4127375;28;20040;-65
2023/09/29 05:48:15;;;;;;;4.60;2.80;;;19.60;99.90;;;;;;4158518;28;20025;-65
2023/09/29 05:50:16;;;;;;;5.30;2.90;;;19.60;99.90;;;;;;4155125;28;20030;-63
2023/09/29 05:52:16;;;;;;;4.63;3.05;;;19.60;99.90;;;;;;4159389;28;20041;-65
2023/09/29 05:54:17;;;;;;;7.40;3.35;;;19.60;99.90;;;;;;4147385;28;20080;-65
2023/09/29 05:56:18;;;;;;;7.05;3.35;;;19.60;99.90;;;;;;4128893;28;20040;-65
2023/09/29 05:58:20;;;;;;;8.75;3.40;;;19.60;99.90;;;;;;4146650;28;20132;-65
2023/09/29 06:00:21;;;;;;;5.60;3.42;;;19.60;99.90;;;;;;4157948;28;20076;-65
2023/09/29 06:02:21;;;;;;;8.25;3.58;;;19.60;99.90;;;;;;4165731;28;20042;-65
2023/09/29 06:04:22;;;;;;;5.13;3.28;;;19.60;99.90;;;;;;4141660;28;20037;-65
2023/09/29 06:06:23;;;;;;;7.43;3.70;;;19.60;99.90;;;;;;4148865;28;20121;-65
2023/09/29 06:08:23;;;;;;;6.72;3.47;;;19.50;99.90;;;;;;4159318;28;20026;-65
2023/09/29 06:10:25;;;;;;;6.93;3.30;;;19.50;99.90;;;;;;4158146;28;20025;-65
2023/09/29 06:12:25;;;;;;;5.03;3.03;;;19.60;99.90;;;;;;4159351;28;20021;-65
2023/09/29 06:14:27;;;;;;;6.57;3.00;;;19.50;99.90;;;;;;4162769;28;20047;-66
2023/09/29 06:16:28;;;;;;;8.82;3.08;;;19.60;99.90;;;;;;4159219;28;20432;-65
2023/09/29 06:18:29;;;;;;;6.05;3.10;;;19.60;99.90;;;;;;4153270;28;20034;-68
2023/09/29 06:20:29;;;;;;;4.32;3.28;;;19.60;99.90;;;;;;4158108;28;20534;-65
2023/09/29 06:22:30;;;;;;;5.53;3.10;;;19.60;99.90;;;;;;4158610;28;20041;-65
2023/09/29 06:24:31;;;;;;;4.35;3.03;;;19.60;99.90;;;;;;4156859;28;20171;-65
2023/09/29 06:26:31;;;;;;;4.95;2.72;;;19.50;99.90;;;;;;4157052;28;20537;-65
2023/09/29 06:28:32;;;;;;;5.63;2.72;;;19.60;99.90;;;;;;4153713;28;20092;-65
2023/09/29 06:30:32;;;;;;;5.40;3.20;;;19.60;99.90;;;;;;4143737;28;20735;-65
2023/09/29 06:32:33;;;;;;;7.70;3.28;;;19.60;99.90;;;;;;4144237;28;20124;-65
2023/09/29 06:34:33;;;;;;;5.20;3.30;;;19.60;99.90;;;;;;4128400;28;20023;-65
2023/09/29 06:36:34;;;;;;;5.70;3.20;;;19.60;99.90;;;;;;4145451;28;20109;-64
2023/09/29 06:38:35;;;;;;;6.63;3.17;;;19.60;99.90;;;;;;4124358;28;20579;-65
2023/09/29 06:40:36;;;;;;;6.50;3.05;;;19.60;99.90;;;;;;4138098;28;20087;-67
2023/09/29 06:42:38;;;;;;;6.47;3.00;;;19.60;99.90;;;;;;4135483;28;20035;-67
2023/09/29 06:44:39;;;;;;;7.18;3.50;;;19.60;99.90;;;;;;4128049;28;20038;-67
2023/09/29 06:46:39;;;;;;;5.00;3.00;;;19.60;99.90;;;;;;4130470;28;20113;-67
2023/09/29 06:48:42;;;;;;;8.88;3.63;;;19.70;99.90;;;;;;4132882;28;20499;-67
2023/09/29 06:50:42;;;;;;;6.65;2.75;;;19.70;99.90;;;;;;4131605;28;20091;-67
2023/09/29 06:52:43;;;;;;;3.30;2.78;;;19.70;99.90;;;;;;4130848;28;21303;-67
2023/09/29 06:54:44;;;;;;;6.05;3.30;;;19.70;99.90;;;;;;4130086;28;20149;-67
2023/09/29 06:56:45;;;;;;;4.88;3.15;;;19.70;99.90;;;;;;4131722;28;20540;-68
2023/09/29 06:58:47;;;;;;;3.00;2.35;;;19.80;99.90;;;;;;4139929;28;20483;-67
2023/09/29 07:00:49;;;;;;;7.05;3.55;;;19.80;99.90;;;;;;4137397;28;20034;-67
2023/09/29 07:02:50;;;;;;;8.18;3.25;;;19.80;99.90;;;;;;4142166;28;20379;-67
2023/09/29 07:04:51;;;;;;;5.35;3.03;;;19.80;99.90;;;;;;4144949;28;20056;-67
2023/09/29 07:06:52;;;;;;;6.57;3.05;;;19.90;99.90;;;;;;4130325;28;20041;-67
2023/09/29 07:08:52;;;;;;;4.68;2.92;;;19.90;99.90;;;;;;4131119;28;20035;-65
2023/09/29 07:10:54;;;;;;;5.25;2.67;;;20.00;99.90;;;;;;4131576;28;20049;-65
2023/09/29 07:12:55;;;;;;;4.65;2.85;;;20.00;99.90;;;;;;4129550;28;20040;-65
2023/09/29 07:14:55;;;;;;;4.88;2.85;;;20.10;99.90;;;;;;4131902;28;20093;-65
2023/09/29 07:16:56;;;;;;;5.22;2.60;;;20.10;99.90;;;;;;4133787;28;20614;-68
2023/09/29 07:18:57;;;;;;;6.65;2.90;;;20.00;99.90;;;;;;4132900;28;20117;-66
2023/09/29 07:20:58;;;;;;;6.20;3.00;;;20.10;99.90;;;;;;4118881;28;20022;-66
2023/09/29 07:22:59;;;;;;;6.68;3.05;;;20.10;99.90;;;;;;4133540;28;20037;-66
2023/09/29 07:24:59;;;;;;;4.35;2.42;;;20.10;99.90;;;;;;4122936;28;20503;-67
2023/09/29 07:27:00;;;;;;;6.53;3.10;;;20.10;99.90;;;;;;4133719;28;20035;-66
2023/09/29 07:29:01;;;;;;;6.45;3.05;;;20.10;99.90;;;;;;4134677;28;20121;-66
2023/09/29 07:31:02;;;;;;;4.97;3.03;;;20.10;99.90;;;;;;4134647;28;20041;-65
2023/09/29 07:33:02;;;;;;;5.25;2.38;;;20.10;99.90;;;;;;4136505;28;20033;-66
2023/09/29 07:35:07;;;;;;;5.78;2.65;;;20.10;99.90;;;;;;4123875;28;20038;-67
2023/09/29 07:37:08;;;;;;;5.80;2.63;;;20.20;99.90;;;;;;4147120;28;20390;-66
2023/09/29 07:39:11;;;;;;;6.30;3.13;;;20.20;99.90;;;;;;4146477;28;20086;-66
2023/09/29 07:41:13;;;;;;;7.20;2.83;;;20.10;99.90;;;;;;4144813;28;20453;-65
2023/09/29 07:43:14;;;;;;;7.00;2.65;;;20.20;99.90;;;;;;4149251;28;20037;-66
2023/09/29 07:45:15;;;;;;;8.00;2.53;;;20.20;99.90;;;;;;4125403;28;20034;-65
2023/09/29 07:47:16;;;;;;;4.15;2.45;;;20.30;99.90;;;;;;4135421;28;20038;-65
2023/09/29 07:49:18;;;;;;;3.97;2.30;;;20.40;99.90;;;;;;4129992;28;20034;-66
2023/09/29 07:51:19;;;;;;;5.10;3.10;;;20.50;99.90;;;;;;4134888;28;20056;-66
2023/09/29 07:53:20;;;;;;;5.45;2.85;;;20.50;99.90;;;;;;4130898;28;20653;-66
2023/09/29 07:55:20;;;;;;;4.28;2.55;;;20.60;99.90;;;;;;4128814;28;20410;-66
2023/09/29 07:57:22;;;;;;;3.58;2.45;;;20.60;99.90;;;;;;4126036;28;20050;-66
2023/09/29 07:59:22;;;;;;;7.00;2.70;;;20.70;99.90;;;;;;4130867;28;20057;-65
2023/09/29 08:01:23;;;;;;;5.28;2.50;;;20.70;99.90;;;;;;4134196;28;20041;-65
2023/09/29 08:03:24;;;;;;;5.03;2.58;;;20.70;99.90;;;;;;4130528;28;20368;-65
2023/09/29 08:05:25;;;;;;;5.07;2.45;;;20.70;99.90;;;;;;4126156;28;20092;-65
2023/09/29 08:07:27;;;;;;;4.35;2.58;;;20.70;99.90;;;;;;4128375;28;20076;-66
2023/09/29 08:09:28;;;;;;;3.87;2.30;;;20.80;99.90;;;;;;4145712;28;20034;-65
2023/09/29 08:11:28;;;;;;;4.70;2.67;;;20.80;99.90;;;;;;4140049;28;20122;-65
2023/09/29 08:13:29;;;;;;;3.88;2.50;;;20.80;99.90;;;;;;4126847;28;20030;-65
2023/09/29 08:15:30;;;;;;;7.57;2.50;;;20.80;99.90;;;;;;4128440;28;20136;-66
2023/09/29 08:17:30;;;;;;;3.80;2.10;;;20.90;99.90;;;;;;4129478;28;20042;-66
2023/09/29 08:19:34;;;;;;;4.28;2.40;;;20.90;99.90;;;;;;4132318;28;20364;-65
2023/09/29 08:21:34;;;;;;;3.72;2.35;;;21.00;99.90;;;;;;4143407;28;20029;-66
2023/09/29 08:23:35;;;;;;;6.85;2.88;;;21.00;99.90;;;;;;4146275;28;20040;-66
2023/09/29 08:25:38;;;;;;;4.28;2.15;;;21.10;99.90;;;;;;4147445;28;20053;-66
2023/09/29 08:27:39;;;;;;;5.80;2.60;;;21.20;99.90;;;;;;4126057;28;20372;-69
2023/09/29 08:29:39;;;;;;;5.80;2.40;;;21.20;99.90;;;;;;4128948;28;20057;-69
2023/09/29 08:31:40;;;;;;;4.97;2.55;;;21.30;99.90;;;;;;4130074;28;20427;-69
2023/09/29 08:33:41;;;;;;;2.88;2.20;;;21.40;99.90;;;;;;4111996;28;20037;-69
2023/09/29 08:35:41;;;;;;;6.63;2.72;;;21.50;99.90;;;;;;4113230;28;20057;-69
2023/09/29 08:37:43;;;;;;;4.95;2.50;;;21.60;99.90;;;;;;4129031;28;20044;-69
2023/09/29 08:39:43;;;;;;;4.50;2.42;;;21.70;99.90;;;;;;4130409;28;20038;-69
2023/09/29 08:42:05;;;;;;;4.45;2.30;;;21.90;99.90;;;;;;4125593;28;20483;-69
2023/09/29 08:44:09;;;;;;;3.05;2.20;;;22.00;99.90;;;;;;4127772;28;20057;-70
2023/09/29 08:46:13;;;;;;;5.68;2.45;;;22.20;99.90;;;;;;4128232;28;20042;-69
2023/09/29 08:48:15;;;;;;;3.83;2.15;;;22.30;99.90;;;;;;4136461;28;20421;-69
2023/09/29 08:50:17;;;;;;;3.20;1.90;;;22.50;99.90;;;;;;4128640;28;20042;-69
2023/09/29 08:52:19;;;;;;;5.03;2.30;;;22.60;99.90;;;;;;4130507;28;20136;-69
2023/09/29 08:54:22;;;;;;;3.80;2.20;;;22.70;99.90;;;;;;4129687;28;20121;-69
2023/09/29 08:56:23;;;;;;;7.88;2.53;;;22.70;99.90;;;;;;4127473;28;20369;-70
2023/09/29 08:58:23;;;;;;;3.15;2.00;;;22.70;99.90;;;;;;4130800;28;20101;-70
2023/09/29 09:00:26;;;;;;;3.92;1.73;;;22.80;99.90;;;;;;4133096;28;20069;-70
2023/09/29 09:02:27;;;;;;;5.43;1.95;;;22.80;99.90;;;;;;4130180;28;20582;-70
2023/09/29 09:04:30;;;;;;;4.93;2.38;;;22.90;99.90;;;;;;4120076;28;20092;-69
2023/09/29 09:06:30;;;;;;;8.43;1.92;;;22.90;99.90;;;;;;4128871;28;20018;-70
2023/09/29 09:08:31;;;;;;;8.45;2.70;;;22.90;99.90;;;;;;4129802;28;20030;-70
2023/09/29 09:10:34;;;;;;;3.35;1.80;;;23.00;99.90;;;;;;4127003;28;20114;-69
2023/09/29 09:12:36;;;;;;;4.50;1.80;;;23.10;99.90;;;;;;4130505;28;21124;-70
2023/09/29 09:14:41;;;;;;;5.15;2.42;;;23.10;99.90;;;;;;4129787;28;20023;-69
2023/09/29 09:16:43;;;;;;;4.18;2.10;;;23.20;99.90;;;;;;4127191;28;20486;-69
2023/09/29 09:18:43;;;;;;;3.22;2.00;;;23.20;99.90;;;;;;4139131;28;20030;-69
2023/09/29 09:20:44;;;;;;;3.03;1.67;;;23.30;99.90;;;;;;4128838;28;20723;-70
2023/09/29 09:22:57;;;;;;;3.30;1.90;;;23.40;99.90;;;;;;4129447;28;20045;-70
2023/09/29 09:24:57;;;;;;;;;;;23.50;99.90;;;;;;4136384;28;20049;-70
2023/09/29 09:27:01;;;;;;;4.78;1.90;;;23.60;99.90;;;;;;4129379;28;20297;-70
2023/09/29 09:29:07;;;;;;;3.25;1.90;;;23.60;99.90;;;;;;4127835;28;20042;-70
2023/09/29 09:31:09;;;;;;;4.85;1.92;;;23.60;99.90;;;;;;4137906;28;20052;-70
2023/09/29 09:33:21;;;;;;;2.88;1.73;;;23.60;99.90;;;;;;4136769;28;20091;-70
2023/09/29 09:35:27;;;;;;;4.55;1.75;;;23.70;99.90;;;;;;4110363;28;20069;-70
2023/09/29 09:37:28;;;;;;;2.95;1.58;;;23.60;99.90;;;;;;4115602;28;20528;-63
2023/09/29 09:39:30;;;;;;;3.05;1.52;;;23.60;99.90;;;;;;4128955;28;20031;-63
2023/09/29 09:41:32;;;;;;;2.90;1.77;;;23.60;99.90;;;;;;4126706;28;20041;-63
2023/09/29 09:43:35;;;;;;;6.30;1.83;;;23.60;99.90;;;;;;4126651;28;20034;-63
2023/09/29 09:45:39;;;;;;;3.45;2.03;;;23.50;99.90;;;;;;4129443;28;20562;-63
2023/09/29 09:47:40;;;;;;;6.18;2.65;;;23.50;99.90;;;;;;4125328;28;21524;-63
2023/09/29 09:49:50;;;;;;;3.78;1.60;;;23.50;99.90;;;;;;4131562;28;20041;-63
2023/09/29 09:51:59;;;;;;;2.90;1.90;;;23.50;99.90;;;;;;4109474;28;20047;-63
2023/09/29 09:54:03;;;;;;;4.25;2.17;;;23.40;99.90;;;;;;4131397;28;20026;-63
2023/09/29 09:56:14;;;;;;;3.78;2.08;;;23.30;99.90;;;;;;4127514;28;20387;-63
2023/09/29 09:58:16;;;;;;;4.65;2.40;;;23.40;99.90;;;;;;4131039;28;20065;-63
2023/09/29 10:00:18;;;;;;;4.80;2.35;;;23.40;99.90;;;;;;4135269;28;20108;-63
2023/09/29 10:02:21;;;;;;;6.75;2.35;;;23.40;99.90;;;;;;4123205;28;20030;-63
2023/09/29 10:04:26;;;;;;;4.35;2.13;;;23.40;99.90;;;;;;4142616;28;20466;-62
2023/09/29 10:06:27;;;;;;;5.93;2.78;;;23.40;99.90;;;;;;4138441;28;20061;-62
2023/09/29 10:08:30;;;;;;;5.57;2.95;;;23.40;99.90;;;;;;4128361;28;20173;-62
2023/09/29 10:10:41;;;;;;;4.45;2.47;;;23.50;99.90;;;;;;4114188;28;20050;-62
2023/09/29 10:12:52;;;;;;;4.00;2.03;;;23.50;99.90;;;;;;4132465;28;20052;-62
2023/09/29 10:14:55;;;;;;;3.97;2.20;;;23.50;99.90;;;;;;4138641;28;20054;-62
2023/09/29 10:17:02;;;;;;;6.70;2.45;;;23.50;99.90;;;;;;4114574;28;20049;-62
2023/09/29 10:19:06;;;;;;;4.05;2.20;;;23.50;99.90;;;;;;4132146;28;20388;-63
2023/09/29 10:21:08;;;;;;;6.35;2.65;;;23.50;99.90;;;;;;4113635;28;20122;-63
2023/09/29 10:23:13;;;;;;;5.55;2.63;;;23.60;99.90;;;;;;4148233;28;20026;-62
2023/09/29 10:25:20;;;;;;;6.57;2.55;;;23.60;99.90;;;;;;4144835;28;20112;-62
2023/09/29 10:27:33;;;;;;;13.40;3.03;;;23.60;99.90;;;;;;4146984;28;20041;-62
2023/09/29 10:29:35;;;;;;;8.15;3.00;;;23.60;99.90;;;;;;4131576;28;20141;-63
2023/09/29 10:31:35;;;;;;;5.30;2.60;;;23.60;99.90;;;;;;4134764;28;20716;-63
2023/09/29 10:33:53;;;;;;;6.20;2.83;;;23.60;99.90;;;;;;4132905;28;20065;-62
2023/09/29 10:35:54;;;;;;;7.07;2.60;;;23.60;99.90;;;;;;4146312;28;20132;-62